sensor_id;sensor_type;location;lat;lon;timestamp;temperature;humidity
42135;DHT22;28312;43.460;11.810;2023-03-23T00:01:55;7.50;65.70
42135;DHT22;28312;43.460;11.810;2023-03-23T00:05:58;7.40;65.80
42135;DHT22;28312;43.460;11.810;2023-03-23T00:10:08;7.30;65.70
42135;DHT22;28312;43.460;11.810;2023-03-23T00:14:11;7.10;66.00
42135;DHT22;28312;43.460;11.810;2023-03-23T00:18:16;7.00;66.00
42135;DHT22;28312;43.460;11.810;2023-03-23T00:57:04;6.20;66.80
42135;DHT22;28312;43.460;11.810;2023-03-23T01:01:08;6.20;66.70
42135;DHT22;28312;43.460;11.810;2023-03-23T01:05:11;6.20;66.80
42135;DHT22;28312;43.460;11.810;2023-03-23T01:09:15;6.10;66.90
42135;DHT22;28312;43.460;11.810;2023-03-23T01:13:19;6.00;66.90
42135;DHT22;28312;43.460;11.810;2023-03-23T01:17:24;5.90;67.10
42135;DHT22;28312;43.460;11.810;2023-03-23T01:21:26;5.80;67.20
42135;DHT22;28312;43.460;11.810;2023-03-23T01:25:30;5.80;67.20
42135;DHT22;28312;43.460;11.810;2023-03-23T01:29:35;5.80;67.10
42135;DHT22;28312;43.460;11.810;2023-03-23T01:33:39;5.70;67.10
42135;DHT22;28312;43.460;11.810;2023-03-23T01:37:42;5.70;67.20
42135;DHT22;28312;43.460;11.810;2023-03-23T01:41:44;5.60;67.30
42135;DHT22;28312;43.460;11.810;2023-03-23T01:45:50;5.60;67.40
42135;DHT22;28312;43.460;11.810;2023-03-23T01:49:52;5.50;67.30
42135;DHT22;28312;43.460;11.810;2023-03-23T01:53:58;5.50;67.30
42135;DHT22;28312;43.460;11.810;2023-03-23T01:58:01;5.40;67.40
42135;DHT22;28312;43.460;11.810;2023-03-23T02:02:04;5.30;67.50
42135;DHT22;28312;43.460;11.810;2023-03-23T02:06:07;5.20;67.60
42135;DHT22;28312;43.460;11.810;2023-03-23T02:10:21;5.20;67.70
42135;DHT22;28312;43.460;11.810;2023-03-23T02:14:26;5.10;67.70
42135;DHT22;28312;43.460;11.810;2023-03-23T02:18:35;5.10;67.70
42135;DHT22;28312;43.460;11.810;2023-03-23T02:27:35;5.00;68.00
42135;DHT22;28312;43.460;11.810;2023-03-23T02:32:01;5.00;68.10
42135;DHT22;28312;43.460;11.810;2023-03-23T02:36:33;5.00;68.50
42135;DHT22;28312;43.460;11.810;2023-03-23T02:40:57;5.10;68.30
42135;DHT22;28312;43.460;11.810;2023-03-23T02:45:04;5.10;68.10
42135;DHT22;28312;43.460;11.810;2023-03-23T02:49:09;5.00;68.10
42135;DHT22;28312;43.460;11.810;2023-03-23T02:53:16;5.00;68.10
42135;DHT22;28312;43.460;11.810;2023-03-23T02:57:21;5.10;68.50
42135;DHT22;28312;43.460;11.810;2023-03-23T03:10:13;5.30;69.10
42135;DHT22;28312;43.460;11.810;2023-03-23T03:14:23;5.50;69.40
42135;DHT22;28312;43.460;11.810;2023-03-23T03:18:28;5.70;69.40
42135;DHT22;28312;43.460;11.810;2023-03-23T03:22:32;5.80;69.30
42135;DHT22;28312;43.460;11.810;2023-03-23T03:26:36;6.00;69.50
42135;DHT22;28312;43.460;11.810;2023-03-23T03:30:56;6.20;69.60
42135;DHT22;28312;43.460;11.810;2023-03-23T03:35:03;6.40;69.70
42135;DHT22;28312;43.460;11.810;2023-03-23T03:39:09;6.60;69.70
42135;DHT22;28312;43.460;11.810;2023-03-23T03:43:12;6.80;69.80
42135;DHT22;28312;43.460;11.810;2023-03-23T03:47:15;6.90;69.70
42135;DHT22;28312;43.460;11.810;2023-03-23T03:51:19;7.10;69.70
42135;DHT22;28312;43.460;11.810;2023-03-23T03:55:25;7.30;69.70
42135;DHT22;28312;43.460;11.810;2023-03-23T03:59:30;7.40;69.70
42135;DHT22;28312;43.460;11.810;2023-03-23T04:03:55;7.60;69.70
42135;DHT22;28312;43.460;11.810;2023-03-23T04:08:08;7.70;69.70
42135;DHT22;28312;43.460;11.810;2023-03-23T04:12:10;7.90;69.60
42135;DHT22;28312;43.460;11.810;2023-03-23T04:16:39;8.00;69.50
42135;DHT22;28312;43.460;11.810;2023-03-23T04:20:44;8.10;69.50
42135;DHT22;28312;43.460;11.810;2023-03-23T04:24:50;8.20;69.50
42135;DHT22;28312;43.460;11.810;2023-03-23T04:28:56;8.20;69.50
42135;DHT22;28312;43.460;11.810;2023-03-23T04:33:10;8.30;69.50
42135;DHT22;28312;43.460;11.810;2023-03-23T04:37:27;8.30;69.50
42135;DHT22;28312;43.460;11.810;2023-03-23T04:41:32;8.30;69.50
42135;DHT22;28312;43.460;11.810;2023-03-23T04:45:55;8.30;69.40
42135;DHT22;28312;43.460;11.810;2023-03-23T04:49:59;8.30;69.50
42135;DHT22;28312;43.460;11.810;2023-03-23T04:54:12;8.30;69.60
42135;DHT22;28312;43.460;11.810;2023-03-23T04:58:17;8.30;69.60
42135;DHT22;28312;43.460;11.810;2023-03-23T05:02:38;8.30;69.50
42135;DHT22;28312;43.460;11.810;2023-03-23T05:06:45;8.20;69.50
42135;DHT22;28312;43.460;11.810;2023-03-23T05:10:57;8.20;69.60
42135;DHT22;28312;43.460;11.810;2023-03-23T05:15:03;8.20;69.40
42135;DHT22;28312;43.460;11.810;2023-03-23T05:19:08;8.20;69.40
42135;DHT22;28312;43.460;11.810;2023-03-23T05:23:12;8.20;69.60
42135;DHT22;28312;43.460;11.810;2023-03-23T05:27:15;8.30;69.50
42135;DHT22;28312;43.460;11.810;2023-03-23T05:31:23;8.30;69.40
42135;DHT22;28312;43.460;11.810;2023-03-23T05:35:27;8.30;69.20
42135;DHT22;28312;43.460;11.810;2023-03-23T05:39:31;8.40;69.30
42135;DHT22;28312;43.460;11.810;2023-03-23T05:44:09;8.40;69.30
42135;DHT22;28312;43.460;11.810;2023-03-23T05:48:24;8.50;69.20
42135;DHT22;28312;43.460;11.810;2023-03-23T05:52:26;8.50;69.40
42135;DHT22;28312;43.460;11.810;2023-03-23T05:56:30;8.60;69.50
42135;DHT22;28312;43.460;11.810;2023-03-23T06:00:48;8.60;69.50
42135;DHT22;28312;43.460;11.810;2023-03-23T06:04:59;8.70;69.50
42135;DHT22;28312;43.460;11.810;2023-03-23T06:09:04;8.70;69.70
42135;DHT22;28312;43.460;11.810;2023-03-23T06:13:18;8.90;69.60
42135;DHT22;28312;43.460;11.810;2023-03-23T06:17:24;8.90;69.50
42135;DHT22;28312;43.460;11.810;2023-03-23T06:21:28;9.00;69.70
42135;DHT22;28312;43.460;11.810;2023-03-23T06:25:54;9.10;69.80
42135;DHT22;28312;43.460;11.810;2023-03-23T06:29:59;9.20;69.70
42135;DHT22;28312;43.460;11.810;2023-03-23T06:34:01;9.30;69.60
42135;DHT22;28312;43.460;11.810;2023-03-23T06:38:33;9.40;69.70
42135;DHT22;28312;43.460;11.810;2023-03-23T06:42:37;9.50;69.80
42135;DHT22;28312;43.460;11.810;2023-03-23T06:47:02;9.60;69.70
42135;DHT22;28312;43.460;11.810;2023-03-23T06:51:10;9.70;69.70
42135;DHT22;28312;43.460;11.810;2023-03-23T06:55:15;9.70;69.70
42135;DHT22;28312;43.460;11.810;2023-03-23T06:59:17;9.80;69.80
42135;DHT22;28312;43.460;11.810;2023-03-23T07:03:20;9.80;69.80
42135;DHT22;28312;43.460;11.810;2023-03-23T07:07:22;9.90;69.80
42135;DHT22;28312;43.460;11.810;2023-03-23T07:11:32;10.00;70.00
42135;DHT22;28312;43.460;11.810;2023-03-23T07:15:40;10.10;70.00
42135;DHT22;28312;43.460;11.810;2023-03-23T07:19:43;10.20;70.10
42135;DHT22;28312;43.460;11.810;2023-03-23T07:23:49;10.40;70.60
42135;DHT22;28312;43.460;11.810;2023-03-23T07:28:01;11.00;72.10
42135;DHT22;28312;43.460;11.810;2023-03-23T07:32:05;12.00;72.10
42135;DHT22;28312;43.460;11.810;2023-03-23T07:36:08;12.70;71.30
42135;DHT22;28312;43.460;11.810;2023-03-23T07:40:12;13.20;70.30
42135;DHT22;28312;43.460;11.810;2023-03-23T07:44:20;13.50;70.00
42135;DHT22;28312;43.460;11.810;2023-03-23T07:48:25;14.00;70.60
42135;DHT22;28312;43.460;11.810;2023-03-23T07:52:28;14.70;70.10
42135;DHT22;28312;43.460;11.810;2023-03-23T07:56:35;15.10;69.60
42135;DHT22;28312;43.460;11.810;2023-03-23T08:00:52;15.40;69.50
42135;DHT22;28312;43.460;11.810;2023-03-23T08:04:56;15.50;69.00
42135;DHT22;28312;43.460;11.810;2023-03-23T08:09:19;15.60;69.50
42135;DHT22;28312;43.460;11.810;2023-03-23T08:13:46;15.90;70.10
42135;DHT22;28312;43.460;11.810;2023-03-23T08:18:07;16.20;68.80
42135;DHT22;28312;43.460;11.810;2023-03-23T08:22:28;16.60;68.90
42135;DHT22;28312;43.460;11.810;2023-03-23T08:26:50;17.10;68.20
42135;DHT22;28312;43.460;11.810;2023-03-23T08:31:12;17.60;67.60
42135;DHT22;28312;43.460;11.810;2023-03-23T08:35:28;18.00;66.20
42135;DHT22;28312;43.460;11.810;2023-03-23T08:39:53;18.20;65.00
42135;DHT22;28312;43.460;11.810;2023-03-23T08:44:07;18.20;64.80
42135;DHT22;28312;43.460;11.810;2023-03-23T08:48:10;18.30;64.70
42135;DHT22;28312;43.460;11.810;2023-03-23T08:52:31;18.60;64.50
42135;DHT22;28312;43.460;11.810;2023-03-23T08:57:00;19.20;65.10
42135;DHT22;28312;43.460;11.810;2023-03-23T09:01:22;20.10;63.30
42135;DHT22;28312;43.460;11.810;2023-03-23T09:05:31;20.60;62.60
42135;DHT22;28312;43.460;11.810;2023-03-23T09:09:51;21.20;62.20
42135;DHT22;28312;43.460;11.810;2023-03-23T09:13:54;21.80;60.20
42135;DHT22;28312;43.460;11.810;2023-03-23T09:17:57;22.20;60.40
42135;DHT22;28312;43.460;11.810;2023-03-23T09:22:00;22.70;59.70
42135;DHT22;28312;43.460;11.810;2023-03-23T09:26:03;23.10;59.40
42135;DHT22;28312;43.460;11.810;2023-03-23T09:30:09;23.30;58.60
42135;DHT22;28312;43.460;11.810;2023-03-23T09:34:13;23.30;57.60
42135;DHT22;28312;43.460;11.810;2023-03-23T09:38:17;23.60;58.10
42135;DHT22;28312;43.460;11.810;2023-03-23T09:42:56;23.60;56.70
42135;DHT22;28312;43.460;11.810;2023-03-23T09:51:55;24.60;57.30
42135;DHT22;28312;43.460;11.810;2023-03-23T09:55:58;24.70;55.10
42135;DHT22;28312;43.460;11.810;2023-03-23T10:04:39;24.40;54.90
42135;DHT22;28312;43.460;11.810;2023-03-23T10:08:58;24.90;55.90
42135;DHT22;28312;43.460;11.810;2023-03-23T10:13:12;25.50;55.30
42135;DHT22;28312;43.460;11.810;2023-03-23T10:17:28;25.60;52.80
42135;DHT22;28312;43.460;11.810;2023-03-23T10:21:32;25.30;53.40
42135;DHT22;28312;43.460;11.810;2023-03-23T10:25:41;25.60;53.20
42135;DHT22;28312;43.460;11.810;2023-03-23T10:30:01;25.70;53.00
42135;DHT22;28312;43.460;11.810;2023-03-23T10:34:19;25.80;52.00
42135;DHT22;28312;43.460;11.810;2023-03-23T10:38:26;25.50;50.60
42135;DHT22;28312;43.460;11.810;2023-03-23T10:42:36;25.30;51.00
42135;DHT22;28312;43.460;11.810;2023-03-23T10:47:04;25.40;51.20
42135;DHT22;28312;43.460;11.810;2023-03-23T10:51:11;25.10;50.90
42135;DHT22;28312;43.460;11.810;2023-03-23T10:55:21;24.70;51.40
42135;DHT22;28312;43.460;11.810;2023-03-23T10:59:29;24.60;51.80
42135;DHT22;28312;43.460;11.810;2023-03-23T11:07:49;25.00;52.40
42135;DHT22;28312;43.460;11.810;2023-03-23T11:11:54;25.40;52.20
42135;DHT22;28312;43.460;11.810;2023-03-23T11:15:58;25.80;52.60
42135;DHT22;28312;43.460;11.810;2023-03-23T11:20:10;26.30;51.60
42135;DHT22;28312;43.460;11.810;2023-03-23T11:24:12;26.30;51.20
42135;DHT22;28312;43.460;11.810;2023-03-23T11:28:15;26.10;50.80
42135;DHT22;28312;43.460;11.810;2023-03-23T11:32:18;25.90;51.50
42135;DHT22;28312;43.460;11.810;2023-03-23T11:36:28;25.90;51.60
42135;DHT22;28312;43.460;11.810;2023-03-23T11:40:32;25.60;52.00
42135;DHT22;28312;43.460;11.810;2023-03-23T11:44:42;25.70;52.70
42135;DHT22;28312;43.460;11.810;2023-03-23T11:49:01;26.00;52.30
42135;DHT22;28312;43.460;11.810;2023-03-23T11:53:22;25.80;51.30
42135;DHT22;28312;43.460;11.810;2023-03-23T11:57:24;25.40;51.00
42135;DHT22;28312;43.460;11.810;2023-03-23T12:05:54;25.20;52.30
42135;DHT22;28312;43.460;11.810;2023-03-23T12:15:34;25.10;52.20
42135;DHT22;28312;43.460;11.810;2023-03-23T12:19:42;25.10;51.90
42135;DHT22;28312;43.460;11.810;2023-03-23T12:32:51;24.90;52.50
42135;DHT22;28312;43.460;11.810;2023-03-23T12:37:15;24.80;52.30
42135;DHT22;28312;43.460;11.810;2023-03-23T12:41:44;24.80;52.20
42135;DHT22;28312;43.460;11.810;2023-03-23T12:54:43;25.60;53.40
42135;DHT22;28312;43.460;11.810;2023-03-23T13:03:40;25.40;52.00
42135;DHT22;28312;43.460;11.810;2023-03-23T13:11:57;24.90;51.50
42135;DHT22;28312;43.460;11.810;2023-03-23T13:16:16;24.20;51.40
42135;DHT22;28312;43.460;11.810;2023-03-23T13:20:32;23.70;51.90
42135;DHT22;28312;43.460;11.810;2023-03-23T13:24:41;23.50;52.30
42135;DHT22;28312;43.460;11.810;2023-03-23T13:28:56;23.10;52.20
42135;DHT22;28312;43.460;11.810;2023-03-23T13:33:06;22.70;51.90
42135;DHT22;28312;43.460;11.810;2023-03-23T13:37:29;22.20;52.20
42135;DHT22;28312;43.460;11.810;2023-03-23T13:41:31;22.00;52.90
42135;DHT22;28312;43.460;11.810;2023-03-23T13:45:45;22.00;53.20
42135;DHT22;28312;43.460;11.810;2023-03-23T13:49:58;22.20;53.40
42135;DHT22;28312;43.460;11.810;2023-03-23T13:54:13;22.70;53.80
42135;DHT22;28312;43.460;11.810;2023-03-23T13:58:25;23.30;53.60
42135;DHT22;28312;43.460;11.810;2023-03-23T14:06:36;23.80;51.30
42135;DHT22;28312;43.460;11.810;2023-03-23T14:14:50;23.10;50.90
42135;DHT22;28312;43.460;11.810;2023-03-23T14:19:00;22.70;50.40
42135;DHT22;28312;43.460;11.810;2023-03-23T14:23:03;22.40;50.80
42135;DHT22;28312;43.460;11.810;2023-03-23T14:27:10;22.10;50.70
42135;DHT22;28312;43.460;11.810;2023-03-23T14:31:24;21.70;50.80
42135;DHT22;28312;43.460;11.810;2023-03-23T14:35:30;21.40;51.20
42135;DHT22;28312;43.460;11.810;2023-03-23T14:39:34;21.30;51.50
42135;DHT22;28312;43.460;11.810;2023-03-23T14:43:37;21.10;51.20
42135;DHT22;28312;43.460;11.810;2023-03-23T14:47:44;20.90;51.10
42135;DHT22;28312;43.460;11.810;2023-03-23T14:51:53;20.70;51.20
42135;DHT22;28312;43.460;11.810;2023-03-23T14:55:58;20.50;51.50
42135;DHT22;28312;43.460;11.810;2023-03-23T15:00:01;20.40;51.70
42135;DHT22;28312;43.460;11.810;2023-03-23T15:04:20;20.40;51.90
42135;DHT22;28312;43.460;11.810;2023-03-23T15:08:27;20.30;52.00
42135;DHT22;28312;43.460;11.810;2023-03-23T15:12:33;20.20;52.10
42135;DHT22;28312;43.460;11.810;2023-03-23T15:16:36;20.20;52.10
42135;DHT22;28312;43.460;11.810;2023-03-23T15:20:49;20.20;52.50
42135;DHT22;28312;43.460;11.810;2023-03-23T15:25:00;20.50;52.90
42135;DHT22;28312;43.460;11.810;2023-03-23T15:29:18;20.80;53.50
42135;DHT22;28312;43.460;11.810;2023-03-23T15:33:22;21.30;53.50
42135;DHT22;28312;43.460;11.810;2023-03-23T15:37:43;21.80;53.40
42135;DHT22;28312;43.460;11.810;2023-03-23T15:41:47;22.10;52.70
42135;DHT22;28312;43.460;11.810;2023-03-23T15:54:30;22.50;51.70
42135;DHT22;28312;43.460;11.810;2023-03-23T15:58:34;22.40;51.60
42135;DHT22;28312;43.460;11.810;2023-03-23T16:02:37;22.30;51.60
42135;DHT22;28312;43.460;11.810;2023-03-23T16:06:41;22.30;51.40
42135;DHT22;28312;43.460;11.810;2023-03-23T16:10:45;22.20;51.20
42135;DHT22;28312;43.460;11.810;2023-03-23T16:14:51;22.20;51.10
42135;DHT22;28312;43.460;11.810;2023-03-23T16:18:55;22.10;51.30
42135;DHT22;28312;43.460;11.810;2023-03-23T16:22:59;22.10;51.10
42135;DHT22;28312;43.460;11.810;2023-03-23T16:27:03;22.10;50.80
42135;DHT22;28312;43.460;11.810;2023-03-23T16:31:07;21.90;50.70
42135;DHT22;28312;43.460;11.810;2023-03-23T16:35:13;21.60;50.60
42135;DHT22;28312;43.460;11.810;2023-03-23T16:39:16;21.30;50.50
42135;DHT22;28312;43.460;11.810;2023-03-23T16:43:21;21.00;50.70
42135;DHT22;28312;43.460;11.810;2023-03-23T16:47:25;20.70;50.70
42135;DHT22;28312;43.460;11.810;2023-03-23T16:51:28;20.30;50.90
42135;DHT22;28312;43.460;11.810;2023-03-23T16:55:32;20.00;51.00
42135;DHT22;28312;43.460;11.810;2023-03-23T16:59:35;19.50;51.20
42135;DHT22;28312;43.460;11.810;2023-03-23T17:03:39;19.10;51.40
42135;DHT22;28312;43.460;11.810;2023-03-23T17:07:45;18.90;51.70
42135;DHT22;28312;43.460;11.810;2023-03-23T17:11:49;18.60;51.80
42135;DHT22;28312;43.460;11.810;2023-03-23T17:15:54;18.30;51.90
42135;DHT22;28312;43.460;11.810;2023-03-23T17:19:59;18.00;52.10
42135;DHT22;28312;43.460;11.810;2023-03-23T17:24:03;17.70;52.30
42135;DHT22;28312;43.460;11.810;2023-03-23T17:28:06;17.50;52.40
42135;DHT22;28312;43.460;11.810;2023-03-23T17:32:10;17.20;52.50
42135;DHT22;28312;43.460;11.810;2023-03-23T17:36:13;17.10;52.60
42135;DHT22;28312;43.460;11.810;2023-03-23T17:40:17;16.90;52.60
42135;DHT22;28312;43.460;11.810;2023-03-23T17:44:22;16.60;52.80
42135;DHT22;28312;43.460;11.810;2023-03-23T17:48:26;16.40;52.90
42135;DHT22;28312;43.460;11.810;2023-03-23T17:52:29;16.20;53.10
42135;DHT22;28312;43.460;11.810;2023-03-23T17:56:33;16.10;53.20
42135;DHT22;28312;43.460;11.810;2023-03-23T18:00:37;15.90;53.30
42135;DHT22;28312;43.460;11.810;2023-03-23T18:04:40;15.70;53.30
42135;DHT22;28312;43.460;11.810;2023-03-23T18:08:44;15.50;53.40
42135;DHT22;28312;43.460;11.810;2023-03-23T18:12:48;15.40;53.50
42135;DHT22;28312;43.460;11.810;2023-03-23T18:16:54;15.20;53.70
42135;DHT22;28312;43.460;11.810;2023-03-23T18:21:04;15.00;53.80
42135;DHT22;28312;43.460;11.810;2023-03-23T18:25:08;15.00;53.90
42135;DHT22;28312;43.460;11.810;2023-03-23T18:29:11;14.90;54.10
42135;DHT22;28312;43.460;11.810;2023-03-23T18:33:16;14.90;54.10
42135;DHT22;28312;43.460;11.810;2023-03-23T18:37:22;14.90;54.40
42135;DHT22;28312;43.460;11.810;2023-03-23T18:41:27;14.90;54.60
42135;DHT22;28312;43.460;11.810;2023-03-23T18:45:34;14.90;54.70
42135;DHT22;28312;43.460;11.810;2023-03-23T18:49:39;14.90;54.80
42135;DHT22;28312;43.460;11.810;2023-03-23T18:53:42;14.90;54.90
42135;DHT22;28312;43.460;11.810;2023-03-23T18:57:46;14.80;55.10
42135;DHT22;28312;43.460;11.810;2023-03-23T19:01:50;14.80;55.20
42135;DHT22;28312;43.460;11.810;2023-03-23T19:05:57;14.70;55.30
42135;DHT22;28312;43.460;11.810;2023-03-23T19:10:02;14.70;55.40
42135;DHT22;28312;43.460;11.810;2023-03-23T19:14:05;14.60;55.50
42135;DHT22;28312;43.460;11.810;2023-03-23T19:18:09;14.60;55.60
42135;DHT22;28312;43.460;11.810;2023-03-23T19:22:13;14.50;55.70
42135;DHT22;28312;43.460;11.810;2023-03-23T19:26:26;14.50;55.80
42135;DHT22;28312;43.460;11.810;2023-03-23T19:30:30;14.40;56.00
42135;DHT22;28312;43.460;11.810;2023-03-23T19:34:35;14.40;56.00
42135;DHT22;28312;43.460;11.810;2023-03-23T19:38:39;14.30;56.20
42135;DHT22;28312;43.460;11.810;2023-03-23T19:42:43;14.30;56.40
42135;DHT22;28312;43.460;11.810;2023-03-23T19:46:46;14.20;56.50
42135;DHT22;28312;43.460;11.810;2023-03-23T19:50:51;14.20;56.70
42135;DHT22;28312;43.460;11.810;2023-03-23T19:54:55;14.10;56.90
42135;DHT22;28312;43.460;11.810;2023-03-23T19:58:59;14.10;57.10
42135;DHT22;28312;43.460;11.810;2023-03-23T20:03:04;14.10;57.30
42135;DHT22;28312;43.460;11.810;2023-03-23T20:07:08;14.10;57.40
42135;DHT22;28312;43.460;11.810;2023-03-23T20:11:15;14.10;57.60
42135;DHT22;28312;43.460;11.810;2023-03-23T20:15:19;13.90;57.70
42135;DHT22;28312;43.460;11.810;2023-03-23T20:19:23;13.90;57.90
42135;DHT22;28312;43.460;11.810;2023-03-23T20:23:26;13.90;58.00
42135;DHT22;28312;43.460;11.810;2023-03-23T20:27:31;13.90;57.90
42135;DHT22;28312;43.460;11.810;2023-03-23T20:31:37;13.80;58.00
42135;DHT22;28312;43.460;11.810;2023-03-23T20:35:41;13.70;58.00
42135;DHT22;28312;43.460;11.810;2023-03-23T20:39:45;13.60;58.00
42135;DHT22;28312;43.460;11.810;2023-03-23T20:43:50;13.60;58.20
42135;DHT22;28312;43.460;11.810;2023-03-23T20:47:56;13.50;58.10
42135;DHT22;28312;43.460;11.810;2023-03-23T20:52:00;13.40;58.20
42135;DHT22;28312;43.460;11.810;2023-03-23T20:56:05;13.30;58.30
42135;DHT22;28312;43.460;11.810;2023-03-23T21:00:10;13.20;58.30
42135;DHT22;28312;43.460;11.810;2023-03-23T21:04:21;13.10;58.40
42135;DHT22;28312;43.460;11.810;2023-03-23T21:08:29;13.10;58.60
42135;DHT22;28312;43.460;11.810;2023-03-23T21:12:33;13.10;58.60
42135;DHT22;28312;43.460;11.810;2023-03-23T21:16:37;13.00;58.70
42135;DHT22;28312;43.460;11.810;2023-03-23T21:20:41;13.10;59.00
42135;DHT22;28312;43.460;11.810;2023-03-23T21:24:46;13.00;59.00
42135;DHT22;28312;43.460;11.810;2023-03-23T21:28:53;13.00;59.10
42135;DHT22;28312;43.460;11.810;2023-03-23T21:32:56;13.00;59.00
42135;DHT22;28312;43.460;11.810;2023-03-23T21:37:01;13.00;58.90
42135;DHT22;28312;43.460;11.810;2023-03-23T21:41:08;13.00;59.00
42135;DHT22;28312;43.460;11.810;2023-03-23T21:45:14;13.00;59.30
42135;DHT22;28312;43.460;11.810;2023-03-23T21:49:20;12.90;59.10
42135;DHT22;28312;43.460;11.810;2023-03-23T21:53:24;12.90;58.90
42135;DHT22;28312;43.460;11.810;2023-03-23T21:57:29;12.80;59.10
42135;DHT22;28312;43.460;11.810;2023-03-23T22:01:34;12.70;59.10
42135;DHT22;28312;43.460;11.810;2023-03-23T22:05:39;12.70;59.10
42135;DHT22;28312;43.460;11.810;2023-03-23T22:09:43;12.60;59.20
42135;DHT22;28312;43.460;11.810;2023-03-23T22:13:47;12.50;59.20
42135;DHT22;28312;43.460;11.810;2023-03-23T22:17:51;12.40;59.40
42135;DHT22;28312;43.460;11.810;2023-03-23T22:21:55;12.30;59.60
42135;DHT22;28312;43.460;11.810;2023-03-23T22:25:58;12.20;59.60
42135;DHT22;28312;43.460;11.810;2023-03-23T22:30:03;12.00;59.80
42135;DHT22;28312;43.460;11.810;2023-03-23T22:34:09;11.90;59.70
42135;DHT22;28312;43.460;11.810;2023-03-23T22:38:13;11.80;59.70
42135;DHT22;28312;43.460;11.810;2023-03-23T22:42:16;11.70;59.60
42135;DHT22;28312;43.460;11.810;2023-03-23T22:46:20;11.50;59.70
42135;DHT22;28312;43.460;11.810;2023-03-23T22:50:24;11.30;59.90
42135;DHT22;28312;43.460;11.810;2023-03-23T22:54:29;11.30;60.60
42135;DHT22;28312;43.460;11.810;2023-03-23T22:58:33;11.50;61.10
42135;DHT22;28312;43.460;11.810;2023-03-23T23:02:37;11.70;60.90
42135;DHT22;28312;43.460;11.810;2023-03-23T23:06:41;11.70;61.30
42135;DHT22;28312;43.460;11.810;2023-03-23T23:10:46;11.90;61.20
42135;DHT22;28312;43.460;11.810;2023-03-23T23:14:50;12.00;60.90
42135;DHT22;28312;43.460;11.810;2023-03-23T23:18:54;12.10;60.80
42135;DHT22;28312;43.460;11.810;2023-03-23T23:22:58;12.10;60.80
42135;DHT22;28312;43.460;11.810;2023-03-23T23:27:02;12.10;60.80
42135;DHT22;28312;43.460;11.810;2023-03-23T23:31:40;12.20;60.50
42135;DHT22;28312;43.460;11.810;2023-03-23T23:35:44;12.10;60.30
42135;DHT22;28312;43.460;11.810;2023-03-23T23:39:48;11.80;60.10
42135;DHT22;28312;43.460;11.810;2023-03-23T23:43:52;11.60;60.30
42135;DHT22;28312;43.460;11.810;2023-03-23T23:47:56;11.30;60.60
42135;DHT22;28312;43.460;11.810;2023-03-23T23:52:00;11.20;60.80
42135;DHT22;28312;43.460;11.810;2023-03-23T23:56:04;11.00;60.90
